sensor_id;sensor_type;location;lat;lon;timestamp;P1;durP1;ratioP1;P2;durP2;ratioP2
249;SDS011;109;19.806;-70.704;2023-11-22T00:01:05;31.23;;;4.97;;
249;SDS011;109;19.806;-70.704;2023-11-22T00:03:32;16.77;;;4.20;;
249;SDS011;109;19.806;-70.704;2023-11-22T00:05:58;14.67;;;3.83;;
249;SDS011;109;19.806;-70.704;2023-11-22T00:08:26;19.80;;;4.00;;
249;SDS011;109;19.806;-70.704;2023-11-22T00:10:55;24.10;;;4.00;;
249;SDS011;109;19.806;-70.704;2023-11-22T00:13:21;25.20;;;4.10;;
249;SDS011;109;19.806;-70.704;2023-11-22T00:15:48;20.40;;;4.10;;
249;SDS011;109;19.806;-70.704;2023-11-22T00:18:16;18.27;;;4.33;;
249;SDS011;109;19.806;-70.704;2023-11-22T00:20:42;30.10;;;4.10;;
249;SDS011;109;19.806;-70.704;2023-11-22T00:23:09;19.63;;;5.20;;
249;SDS011;109;19.806;-70.704;2023-11-22T00:25:35;18.70;;;4.00;;
249;SDS011;109;19.806;-70.704;2023-11-22T00:28:02;27.33;;;5.20;;
249;SDS011;109;19.806;-70.704;2023-11-22T00:30:31;24.93;;;4.93;;
249;SDS011;109;19.806;-70.704;2023-11-22T00:32:58;14.17;;;3.73;;
249;SDS011;109;19.806;-70.704;2023-11-22T00:35:30;21.10;;;4.70;;
249;SDS011;109;19.806;-70.704;2023-11-22T00:37:57;25.97;;;4.87;;
249;SDS011;109;19.806;-70.704;2023-11-22T00:40:29;22.57;;;3.93;;
249;SDS011;109;19.806;-70.704;2023-11-22T00:42:56;22.97;;;4.20;;
249;SDS011;109;19.806;-70.704;2023-11-22T00:45:29;13.63;;;3.70;;
249;SDS011;109;19.806;-70.704;2023-11-22T00:47:56;15.20;;;3.47;;
249;SDS011;109;19.806;-70.704;2023-11-22T00:50:29;20.53;;;3.80;;
249;SDS011;109;19.806;-70.704;2023-11-22T00:52:56;15.63;;;4.03;;
249;SDS011;109;19.806;-70.704;2023-11-22T00:55:28;15.37;;;3.90;;
249;SDS011;109;19.806;-70.704;2023-11-22T00:58:09;11.53;;;3.53;;
249;SDS011;109;19.806;-70.704;2023-11-22T01:00:35;18.13;;;3.53;;
249;SDS011;109;19.806;-70.704;2023-11-22T01:03:08;15.57;;;3.30;;
249;SDS011;109;19.806;-70.704;2023-11-22T01:05:37;11.50;;;3.33;;
249;SDS011;109;19.806;-70.704;2023-11-22T01:08:10;14.50;;;3.83;;
249;SDS011;109;19.806;-70.704;2023-11-22T01:10:37;15.47;;;3.53;;
249;SDS011;109;19.806;-70.704;2023-11-22T01:13:11;14.10;;;3.43;;
249;SDS011;109;19.806;-70.704;2023-11-22T01:15:38;17.10;;;3.33;;
249;SDS011;109;19.806;-70.704;2023-11-22T01:18:10;15.40;;;3.33;;
249;SDS011;109;19.806;-70.704;2023-11-22T01:20:37;17.90;;;4.40;;
249;SDS011;109;19.806;-70.704;2023-11-22T01:23:09;17.50;;;3.97;;
249;SDS011;109;19.806;-70.704;2023-11-22T01:25:36;21.07;;;4.13;;
249;SDS011;109;19.806;-70.704;2023-11-22T01:28:09;19.87;;;3.93;;
249;SDS011;109;19.806;-70.704;2023-11-22T01:30:37;38.70;;;7.73;;
249;SDS011;109;19.806;-70.704;2023-11-22T01:33:11;19.53;;;5.17;;
249;SDS011;109;19.806;-70.704;2023-11-22T01:35:38;35.57;;;6.37;;
249;SDS011;109;19.806;-70.704;2023-11-22T01:38:11;41.83;;;4.93;;
249;SDS011;109;19.806;-70.704;2023-11-22T01:40:43;26.37;;;4.17;;
249;SDS011;109;19.806;-70.704;2023-11-22T01:43:20;16.20;;;4.30;;
249;SDS011;109;19.806;-70.704;2023-11-22T01:45:49;14.73;;;3.67;;
249;SDS011;109;19.806;-70.704;2023-11-22T01:48:22;21.27;;;3.40;;
249;SDS011;109;19.806;-70.704;2023-11-22T01:50:49;16.90;;;3.80;;
249;SDS011;109;19.806;-70.704;2023-11-22T01:53:30;19.10;;;3.90;;
249;SDS011;109;19.806;-70.704;2023-11-22T01:56:11;19.27;;;6.67;;
249;SDS011;109;19.806;-70.704;2023-11-22T01:58:38;17.60;;;4.67;;
249;SDS011;109;19.806;-70.704;2023-11-22T02:01:10;14.30;;;4.13;;
249;SDS011;109;19.806;-70.704;2023-11-22T02:03:39;24.53;;;4.30;;
249;SDS011;109;19.806;-70.704;2023-11-22T02:06:11;21.07;;;7.00;;
249;SDS011;109;19.806;-70.704;2023-11-22T02:08:38;17.97;;;4.40;;
249;SDS011;109;19.806;-70.704;2023-11-22T02:11:10;11.57;;;3.50;;
249;SDS011;109;19.806;-70.704;2023-11-22T02:13:37;14.17;;;3.83;;
249;SDS011;109;19.806;-70.704;2023-11-22T02:16:09;29.27;;;4.67;;
249;SDS011;109;19.806;-70.704;2023-11-22T02:18:36;19.27;;;4.00;;
249;SDS011;109;19.806;-70.704;2023-11-22T02:21:09;20.23;;;4.13;;
249;SDS011;109;19.806;-70.704;2023-11-22T02:23:36;16.90;;;4.10;;
249;SDS011;109;19.806;-70.704;2023-11-22T02:26:13;13.97;;;3.30;;
249;SDS011;109;19.806;-70.704;2023-11-22T02:28:41;21.70;;;3.93;;
249;SDS011;109;19.806;-70.704;2023-11-22T02:31:15;23.57;;;4.87;;
249;SDS011;109;19.806;-70.704;2023-11-22T02:33:43;21.70;;;4.30;;
249;SDS011;109;19.806;-70.704;2023-11-22T02:36:18;29.53;;;5.00;;
249;SDS011;109;19.806;-70.704;2023-11-22T02:38:44;23.70;;;6.23;;
249;SDS011;109;19.806;-70.704;2023-11-22T02:41:18;21.50;;;4.33;;
249;SDS011;109;19.806;-70.704;2023-11-22T02:43:44;19.73;;;4.20;;
249;SDS011;109;19.806;-70.704;2023-11-22T02:46:25;34.60;;;4.73;;
249;SDS011;109;19.806;-70.704;2023-11-22T02:48:59;25.17;;;5.50;;
249;SDS011;109;19.806;-70.704;2023-11-22T02:51:25;28.30;;;4.40;;
249;SDS011;109;19.806;-70.704;2023-11-22T02:53:58;23.80;;;4.37;;
249;SDS011;109;19.806;-70.704;2023-11-22T02:56:38;22.07;;;4.30;;
249;SDS011;109;19.806;-70.704;2023-11-22T02:59:05;24.53;;;4.97;;
249;SDS011;109;19.806;-70.704;2023-11-22T03:01:44;22.63;;;4.30;;
249;SDS011;109;19.806;-70.704;2023-11-22T03:04:11;23.43;;;4.00;;
249;SDS011;109;19.806;-70.704;2023-11-22T03:06:44;15.80;;;3.73;;
249;SDS011;109;19.806;-70.704;2023-11-22T03:09:11;24.83;;;4.57;;
249;SDS011;109;19.806;-70.704;2023-11-22T03:11:46;25.27;;;4.47;;
249;SDS011;109;19.806;-70.704;2023-11-22T03:14:12;23.00;;;4.60;;
249;SDS011;109;19.806;-70.704;2023-11-22T03:16:45;28.60;;;4.40;;
249;SDS011;109;19.806;-70.704;2023-11-22T03:19:11;22.17;;;3.90;;
249;SDS011;109;19.806;-70.704;2023-11-22T03:21:46;23.90;;;4.90;;
249;SDS011;109;19.806;-70.704;2023-11-22T03:24:12;23.50;;;4.30;;
249;SDS011;109;19.806;-70.704;2023-11-22T03:26:48;21.53;;;4.43;;
249;SDS011;109;19.806;-70.704;2023-11-22T03:29:15;17.97;;;4.37;;
249;SDS011;109;19.806;-70.704;2023-11-22T03:31:50;12.07;;;4.40;;
249;SDS011;109;19.806;-70.704;2023-11-22T03:34:18;17.53;;;5.23;;
249;SDS011;109;19.806;-70.704;2023-11-22T03:36:52;9.87;;;3.80;;
249;SDS011;109;19.806;-70.704;2023-11-22T03:39:25;22.93;;;4.57;;
249;SDS011;109;19.806;-70.704;2023-11-22T03:41:59;33.43;;;4.30;;
249;SDS011;109;19.806;-70.704;2023-11-22T03:44:25;19.83;;;4.47;;
249;SDS011;109;19.806;-70.704;2023-11-22T03:46:59;12.10;;;4.10;;
249;SDS011;109;19.806;-70.704;2023-11-22T03:49:25;20.37;;;4.10;;
249;SDS011;109;19.806;-70.704;2023-11-22T03:51:57;15.80;;;4.30;;
249;SDS011;109;19.806;-70.704;2023-11-22T03:54:40;21.73;;;4.50;;
249;SDS011;109;19.806;-70.704;2023-11-22T03:57:07;26.23;;;4.20;;
249;SDS011;109;19.806;-70.704;2023-11-22T03:59:40;26.97;;;4.20;;
249;SDS011;109;19.806;-70.704;2023-11-22T04:02:08;19.70;;;3.67;;
249;SDS011;109;19.806;-70.704;2023-11-22T04:04:42;18.90;;;3.10;;
249;SDS011;109;19.806;-70.704;2023-11-22T04:07:08;9.73;;;3.53;;
249;SDS011;109;19.806;-70.704;2023-11-22T04:09:40;17.80;;;3.33;;
249;SDS011;109;19.806;-70.704;2023-11-22T04:12:08;10.67;;;3.07;;
249;SDS011;109;19.806;-70.704;2023-11-22T04:14:41;16.57;;;3.80;;
249;SDS011;109;19.806;-70.704;2023-11-22T04:17:07;14.40;;;3.67;;
249;SDS011;109;19.806;-70.704;2023-11-22T04:19:40;9.10;;;2.97;;
249;SDS011;109;19.806;-70.704;2023-11-22T04:22:06;25.33;;;4.07;;
249;SDS011;109;19.806;-70.704;2023-11-22T04:24:39;12.13;;;3.30;;
249;SDS011;109;19.806;-70.704;2023-11-22T04:27:05;23.43;;;3.80;;
249;SDS011;109;19.806;-70.704;2023-11-22T04:29:37;15.40;;;3.63;;
249;SDS011;109;19.806;-70.704;2023-11-22T04:32:04;16.53;;;3.83;;
249;SDS011;109;19.806;-70.704;2023-11-22T04:34:38;23.80;;;4.50;;
249;SDS011;109;19.806;-70.704;2023-11-22T04:37:12;25.80;;;4.10;;
249;SDS011;109;19.806;-70.704;2023-11-22T04:39:46;32.53;;;5.23;;
249;SDS011;109;19.806;-70.704;2023-11-22T04:42:24;21.17;;;4.57;;
249;SDS011;109;19.806;-70.704;2023-11-22T04:44:50;22.47;;;4.47;;
249;SDS011;109;19.806;-70.704;2023-11-22T04:47:23;23.83;;;4.40;;
249;SDS011;109;19.806;-70.704;2023-11-22T04:49:50;22.93;;;4.40;;
249;SDS011;109;19.806;-70.704;2023-11-22T04:52:24;30.90;;;4.40;;
249;SDS011;109;19.806;-70.704;2023-11-22T04:55:10;28.80;;;4.73;;
249;SDS011;109;19.806;-70.704;2023-11-22T04:57:45;21.10;;;4.60;;
249;SDS011;109;19.806;-70.704;2023-11-22T05:00:12;12.47;;;3.47;;
249;SDS011;109;19.806;-70.704;2023-11-22T05:02:46;24.90;;;4.37;;
249;SDS011;109;19.806;-70.704;2023-11-22T05:05:12;16.07;;;3.47;;
249;SDS011;109;19.806;-70.704;2023-11-22T05:07:46;32.43;;;4.20;;
249;SDS011;109;19.806;-70.704;2023-11-22T05:10:13;19.03;;;4.10;;
249;SDS011;109;19.806;-70.704;2023-11-22T05:12:53;24.70;;;4.63;;
249;SDS011;109;19.806;-70.704;2023-11-22T05:15:31;23.80;;;4.40;;
249;SDS011;109;19.806;-70.704;2023-11-22T05:17:57;28.90;;;4.37;;
249;SDS011;109;19.806;-70.704;2023-11-22T05:20:30;19.67;;;4.67;;
249;SDS011;109;19.806;-70.704;2023-11-22T05:22:56;26.07;;;3.97;;
249;SDS011;109;19.806;-70.704;2023-11-22T05:25:29;19.13;;;3.90;;
249;SDS011;109;19.806;-70.704;2023-11-22T05:27:55;29.83;;;4.40;;
249;SDS011;109;19.806;-70.704;2023-11-22T05:30:29;29.83;;;3.90;;
249;SDS011;109;19.806;-70.704;2023-11-22T05:32:56;17.73;;;4.17;;
249;SDS011;109;19.806;-70.704;2023-11-22T05:35:30;22.90;;;4.10;;
249;SDS011;109;19.806;-70.704;2023-11-22T05:37:56;17.60;;;4.23;;
249;SDS011;109;19.806;-70.704;2023-11-22T05:40:30;23.87;;;4.80;;
249;SDS011;109;19.806;-70.704;2023-11-22T05:42:56;23.40;;;4.23;;
249;SDS011;109;19.806;-70.704;2023-11-22T05:45:29;15.00;;;3.17;;
249;SDS011;109;19.806;-70.704;2023-11-22T05:47:55;20.97;;;4.10;;
249;SDS011;109;19.806;-70.704;2023-11-22T05:50:27;28.50;;;3.73;;
249;SDS011;109;19.806;-70.704;2023-11-22T05:52:54;24.83;;;3.97;;
249;SDS011;109;19.806;-70.704;2023-11-22T05:55:27;16.13;;;3.57;;
249;SDS011;109;19.806;-70.704;2023-11-22T05:58:07;20.73;;;3.63;;
249;SDS011;109;19.806;-70.704;2023-11-22T06:00:33;17.43;;;3.73;;
249;SDS011;109;19.806;-70.704;2023-11-22T06:03:06;25.67;;;4.03;;
249;SDS011;109;19.806;-70.704;2023-11-22T06:05:32;22.13;;;3.60;;
249;SDS011;109;19.806;-70.704;2023-11-22T06:08:05;27.10;;;4.23;;
249;SDS011;109;19.806;-70.704;2023-11-22T06:10:31;29.07;;;5.50;;
249;SDS011;109;19.806;-70.704;2023-11-22T06:13:13;32.17;;;5.60;;
249;SDS011;109;19.806;-70.704;2023-11-22T06:15:47;26.93;;;4.40;;
249;SDS011;109;19.806;-70.704;2023-11-22T06:18:13;16.97;;;4.30;;
249;SDS011;109;19.806;-70.704;2023-11-22T06:20:47;16.37;;;3.47;;
249;SDS011;109;19.806;-70.704;2023-11-22T06:23:14;13.47;;;3.03;;
249;SDS011;109;19.806;-70.704;2023-11-22T06:25:47;23.73;;;4.83;;
249;SDS011;109;19.806;-70.704;2023-11-22T06:28:13;23.73;;;4.03;;
249;SDS011;109;19.806;-70.704;2023-11-22T06:30:46;16.53;;;3.33;;
249;SDS011;109;19.806;-70.704;2023-11-22T06:33:12;24.50;;;3.77;;
249;SDS011;109;19.806;-70.704;2023-11-22T06:35:45;22.97;;;4.00;;
249;SDS011;109;19.806;-70.704;2023-11-22T06:38:11;31.57;;;4.97;;
249;SDS011;109;19.806;-70.704;2023-11-22T06:40:45;30.43;;;4.00;;
249;SDS011;109;19.806;-70.704;2023-11-22T06:43:11;14.17;;;3.40;;
249;SDS011;109;19.806;-70.704;2023-11-22T06:45:45;20.43;;;5.43;;
249;SDS011;109;19.806;-70.704;2023-11-22T06:48:19;16.17;;;4.07;;
249;SDS011;109;19.806;-70.704;2023-11-22T06:50:53;23.57;;;4.03;;
249;SDS011;109;19.806;-70.704;2023-11-22T06:53:19;21.20;;;4.10;;
249;SDS011;109;19.806;-70.704;2023-11-22T06:55:53;24.57;;;4.17;;
249;SDS011;109;19.806;-70.704;2023-11-22T06:58:33;29.30;;;4.57;;
249;SDS011;109;19.806;-70.704;2023-11-22T07:01:00;20.50;;;4.20;;
249;SDS011;109;19.806;-70.704;2023-11-22T07:03:33;31.87;;;4.40;;
249;SDS011;109;19.806;-70.704;2023-11-22T07:05:59;17.03;;;3.93;;
249;SDS011;109;19.806;-70.704;2023-11-22T07:08:33;21.93;;;5.40;;
249;SDS011;109;19.806;-70.704;2023-11-22T07:11:00;21.97;;;4.77;;
249;SDS011;109;19.806;-70.704;2023-11-22T07:13:43;25.90;;;4.60;;
249;SDS011;109;19.806;-70.704;2023-11-22T07:16:17;23.60;;;4.00;;
249;SDS011;109;19.806;-70.704;2023-11-22T07:18:44;35.03;;;5.20;;
249;SDS011;109;19.806;-70.704;2023-11-22T07:21:18;36.27;;;4.77;;
249;SDS011;109;19.806;-70.704;2023-11-22T07:23:46;22.73;;;4.10;;
249;SDS011;109;19.806;-70.704;2023-11-22T07:26:20;19.80;;;4.33;;
249;SDS011;109;19.806;-70.704;2023-11-22T07:28:46;25.07;;;4.30;;
249;SDS011;109;19.806;-70.704;2023-11-22T07:31:20;19.80;;;4.63;;
249;SDS011;109;19.806;-70.704;2023-11-22T07:33:48;25.97;;;4.73;;
249;SDS011;109;19.806;-70.704;2023-11-22T07:36:21;37.07;;;5.20;;
249;SDS011;109;19.806;-70.704;2023-11-22T07:38:47;31.53;;;5.90;;
249;SDS011;109;19.806;-70.704;2023-11-22T07:41:21;23.30;;;4.80;;
249;SDS011;109;19.806;-70.704;2023-11-22T07:43:47;29.60;;;5.10;;
249;SDS011;109;19.806;-70.704;2023-11-22T07:46:22;24.87;;;4.97;;
249;SDS011;109;19.806;-70.704;2023-11-22T07:48:55;25.63;;;5.00;;
249;SDS011;109;19.806;-70.704;2023-11-22T07:51:29;26.80;;;6.07;;
249;SDS011;109;19.806;-70.704;2023-11-22T07:53:56;18.87;;;4.23;;
249;SDS011;109;19.806;-70.704;2023-11-22T07:56:29;26.87;;;5.10;;
249;SDS011;109;19.806;-70.704;2023-11-22T07:59:09;31.17;;;4.70;;
249;SDS011;109;19.806;-70.704;2023-11-22T08:01:39;27.03;;;4.93;;
249;SDS011;109;19.806;-70.704;2023-11-22T08:04:20;19.00;;;4.90;;
249;SDS011;109;19.806;-70.704;2023-11-22T08:06:46;20.00;;;4.17;;
249;SDS011;109;19.806;-70.704;2023-11-22T08:09:19;18.53;;;3.97;;
249;SDS011;109;19.806;-70.704;2023-11-22T08:11:45;20.33;;;4.23;;
249;SDS011;109;19.806;-70.704;2023-11-22T08:14:26;22.33;;;4.10;;
249;SDS011;109;19.806;-70.704;2023-11-22T08:17:00;16.27;;;4.50;;
249;SDS011;109;19.806;-70.704;2023-11-22T08:19:27;18.50;;;4.10;;
249;SDS011;109;19.806;-70.704;2023-11-22T08:22:00;28.53;;;4.43;;
249;SDS011;109;19.806;-70.704;2023-11-22T08:24:26;17.70;;;3.70;;
249;SDS011;109;19.806;-70.704;2023-11-22T08:27:02;23.70;;;4.33;;
249;SDS011;109;19.806;-70.704;2023-11-22T08:29:29;14.87;;;3.73;;
249;SDS011;109;19.806;-70.704;2023-11-22T08:32:02;25.10;;;4.43;;
249;SDS011;109;19.806;-70.704;2023-11-22T08:34:28;17.10;;;4.00;;
249;SDS011;109;19.806;-70.704;2023-11-22T08:37:02;19.10;;;4.77;;
249;SDS011;109;19.806;-70.704;2023-11-22T08:39:28;21.43;;;4.80;;
249;SDS011;109;19.806;-70.704;2023-11-22T08:42:02;26.67;;;5.67;;
249;SDS011;109;19.806;-70.704;2023-11-22T08:44:28;25.47;;;5.77;;
249;SDS011;109;19.806;-70.704;2023-11-22T08:47:02;46.13;;;5.97;;
249;SDS011;109;19.806;-70.704;2023-11-22T08:49:36;23.47;;;5.10;;
249;SDS011;109;19.806;-70.704;2023-11-22T08:52:10;26.80;;;5.47;;
249;SDS011;109;19.806;-70.704;2023-11-22T08:54:56;27.97;;;5.80;;
249;SDS011;109;19.806;-70.704;2023-11-22T08:57:30;23.13;;;5.17;;
249;SDS011;109;19.806;-70.704;2023-11-22T09:00:09;25.10;;;5.90;;
249;SDS011;109;19.806;-70.704;2023-11-22T09:02:43;30.53;;;5.50;;
249;SDS011;109;19.806;-70.704;2023-11-22T09:05:09;37.33;;;6.67;;
249;SDS011;109;19.806;-70.704;2023-11-22T09:07:45;39.47;;;6.37;;
249;SDS011;109;19.806;-70.704;2023-11-22T09:10:19;41.33;;;7.70;;
249;SDS011;109;19.806;-70.704;2023-11-22T09:12:57;42.90;;;6.97;;
249;SDS011;109;19.806;-70.704;2023-11-22T09:15:33;29.47;;;5.87;;
249;SDS011;109;19.806;-70.704;2023-11-22T09:18:00;42.73;;;6.13;;
249;SDS011;109;19.806;-70.704;2023-11-22T09:20:34;31.43;;;6.37;;
249;SDS011;109;19.806;-70.704;2023-11-22T09:23:00;33.03;;;6.07;;
249;SDS011;109;19.806;-70.704;2023-11-22T09:25:34;23.60;;;5.30;;
249;SDS011;109;19.806;-70.704;2023-11-22T09:28:01;26.53;;;5.67;;
249;SDS011;109;19.806;-70.704;2023-11-22T09:30:36;36.03;;;6.27;;
249;SDS011;109;19.806;-70.704;2023-11-22T09:33:15;30.40;;;5.90;;
249;SDS011;109;19.806;-70.704;2023-11-22T09:35:42;45.57;;;8.20;;
249;SDS011;109;19.806;-70.704;2023-11-22T09:38:17;46.97;;;6.73;;
249;SDS011;109;19.806;-70.704;2023-11-22T09:40:44;37.10;;;7.20;;
249;SDS011;109;19.806;-70.704;2023-11-22T09:43:19;40.50;;;5.93;;
249;SDS011;109;19.806;-70.704;2023-11-22T09:45:58;42.33;;;6.30;;
249;SDS011;109;19.806;-70.704;2023-11-22T09:48:24;31.83;;;5.83;;
249;SDS011;109;19.806;-70.704;2023-11-22T09:54:05;40.93;;;5.70;;
249;SDS011;109;19.806;-70.704;2023-11-22T09:56:53;38.83;;;7.97;;
249;SDS011;109;19.806;-70.704;2023-11-22T09:59:27;54.10;;;9.20;;
249;SDS011;109;19.806;-70.704;2023-11-22T10:01:54;55.63;;;9.63;;
249;SDS011;109;19.806;-70.704;2023-11-22T10:04:34;41.40;;;7.50;;
249;SDS011;109;19.806;-70.704;2023-11-22T10:07:08;36.07;;;7.47;;
249;SDS011;109;19.806;-70.704;2023-11-22T10:09:36;31.43;;;6.20;;
249;SDS011;109;19.806;-70.704;2023-11-22T10:12:11;48.07;;;6.30;;
249;SDS011;109;19.806;-70.704;2023-11-22T10:14:39;30.23;;;6.27;;
249;SDS011;109;19.806;-70.704;2023-11-22T10:17:12;37.90;;;6.20;;
249;SDS011;109;19.806;-70.704;2023-11-22T10:19:40;38.17;;;7.23;;
249;SDS011;109;19.806;-70.704;2023-11-22T10:22:14;29.40;;;6.30;;
249;SDS011;109;19.806;-70.704;2023-11-22T10:24:43;32.63;;;5.90;;
249;SDS011;109;19.806;-70.704;2023-11-22T10:27:19;33.87;;;6.20;;
249;SDS011;109;19.806;-70.704;2023-11-22T10:32:50;29.07;;;5.80;;
249;SDS011;109;19.806;-70.704;2023-11-22T10:35:32;39.27;;;6.43;;
249;SDS011;109;19.806;-70.704;2023-11-22T10:38:01;30.30;;;7.03;;
249;SDS011;109;19.806;-70.704;2023-11-22T10:40:39;33.27;;;6.17;;
249;SDS011;109;19.806;-70.704;2023-11-22T10:43:07;26.40;;;4.90;;
249;SDS011;109;19.806;-70.704;2023-11-22T10:45:43;42.07;;;5.73;;
249;SDS011;109;19.806;-70.704;2023-11-22T10:48:21;38.03;;;6.53;;
249;SDS011;109;19.806;-70.704;2023-11-22T10:50:47;31.10;;;5.50;;
249;SDS011;109;19.806;-70.704;2023-11-22T10:53:21;26.27;;;5.80;;
249;SDS011;109;19.806;-70.704;2023-11-22T10:56:01;23.37;;;5.97;;
249;SDS011;109;19.806;-70.704;2023-11-22T10:58:51;21.10;;;5.70;;
249;SDS011;109;19.806;-70.704;2023-11-22T11:01:31;21.40;;;4.73;;
249;SDS011;109;19.806;-70.704;2023-11-22T11:04:03;25.90;;;5.30;;
249;SDS011;109;19.806;-70.704;2023-11-22T11:06:39;31.30;;;7.13;;
249;SDS011;109;19.806;-70.704;2023-11-22T11:09:13;38.43;;;6.43;;
249;SDS011;109;19.806;-70.704;2023-11-22T11:11:45;32.10;;;5.77;;
249;SDS011;109;19.806;-70.704;2023-11-22T11:14:13;26.10;;;5.50;;
249;SDS011;109;19.806;-70.704;2023-11-22T11:16:41;27.10;;;5.43;;
249;SDS011;109;19.806;-70.704;2023-11-22T11:19:14;17.93;;;4.70;;
249;SDS011;109;19.806;-70.704;2023-11-22T11:21:47;21.87;;;5.77;;
249;SDS011;109;19.806;-70.704;2023-11-22T11:24:14;55.47;;;7.03;;
249;SDS011;109;19.806;-70.704;2023-11-22T11:26:47;27.23;;;6.60;;
249;SDS011;109;19.806;-70.704;2023-11-22T11:29:36;24.97;;;6.63;;
249;SDS011;109;19.806;-70.704;2023-11-22T11:32:15;31.63;;;6.10;;
249;SDS011;109;19.806;-70.704;2023-11-22T11:34:57;34.90;;;6.70;;
249;SDS011;109;19.806;-70.704;2023-11-22T11:37:28;30.67;;;7.23;;
249;SDS011;109;19.806;-70.704;2023-11-22T11:39:56;25.10;;;5.50;;
249;SDS011;109;19.806;-70.704;2023-11-22T11:42:24;40.50;;;6.97;;
249;SDS011;109;19.806;-70.704;2023-11-22T11:45:04;33.00;;;6.60;;
249;SDS011;109;19.806;-70.704;2023-11-22T11:47:33;32.77;;;6.87;;
249;SDS011;109;19.806;-70.704;2023-11-22T11:50:00;29.83;;;5.37;;
249;SDS011;109;19.806;-70.704;2023-11-22T11:52:28;30.07;;;7.30;;
249;SDS011;109;19.806;-70.704;2023-11-22T11:54:57;35.83;;;6.30;;
249;SDS011;109;19.806;-70.704;2023-11-22T11:57:23;24.63;;;5.43;;
249;SDS011;109;19.806;-70.704;2023-11-22T11:59:50;27.80;;;5.73;;
249;SDS011;109;19.806;-70.704;2023-11-22T12:02:21;33.20;;;5.90;;
249;SDS011;109;19.806;-70.704;2023-11-22T12:04:47;25.33;;;5.93;;
249;SDS011;109;19.806;-70.704;2023-11-22T12:07:17;25.30;;;6.10;;
249;SDS011;109;19.806;-70.704;2023-11-22T12:09:43;31.67;;;6.37;;
249;SDS011;109;19.806;-70.704;2023-11-22T12:12:17;33.43;;;7.10;;
249;SDS011;109;19.806;-70.704;2023-11-22T12:14:44;49.83;;;7.20;;
249;SDS011;109;19.806;-70.704;2023-11-22T12:17:15;34.07;;;6.77;;
249;SDS011;109;19.806;-70.704;2023-11-22T12:19:46;38.63;;;6.60;;
249;SDS011;109;19.806;-70.704;2023-11-22T12:22:15;30.70;;;6.20;;
249;SDS011;109;19.806;-70.704;2023-11-22T12:24:42;40.10;;;7.43;;
249;SDS011;109;19.806;-70.704;2023-11-22T12:27:12;27.07;;;6.77;;
249;SDS011;109;19.806;-70.704;2023-11-22T12:29:40;28.50;;;5.90;;
249;SDS011;109;19.806;-70.704;2023-11-22T12:32:12;32.00;;;6.07;;
249;SDS011;109;19.806;-70.704;2023-11-22T12:34:42;34.43;;;6.10;;
249;SDS011;109;19.806;-70.704;2023-11-22T12:37:14;32.70;;;7.90;;
249;SDS011;109;19.806;-70.704;2023-11-22T12:39:44;41.70;;;7.10;;
249;SDS011;109;19.806;-70.704;2023-11-22T12:42:14;31.70;;;6.47;;
249;SDS011;109;19.806;-70.704;2023-11-22T12:44:47;33.17;;;6.60;;
249;SDS011;109;19.806;-70.704;2023-11-22T12:47:33;32.10;;;7.17;;
249;SDS011;109;19.806;-70.704;2023-11-22T12:50:03;28.80;;;6.77;;
249;SDS011;109;19.806;-70.704;2023-11-22T12:52:34;49.20;;;6.83;;
249;SDS011;109;19.806;-70.704;2023-11-22T12:55:01;28.77;;;6.77;;
249;SDS011;109;19.806;-70.704;2023-11-22T12:57:30;37.60;;;6.70;;
249;SDS011;109;19.806;-70.704;2023-11-22T12:59:58;25.60;;;5.63;;
249;SDS011;109;19.806;-70.704;2023-11-22T13:02:31;26.27;;;6.13;;
249;SDS011;109;19.806;-70.704;2023-11-22T13:04:58;24.80;;;5.70;;
249;SDS011;109;19.806;-70.704;2023-11-22T13:07:26;38.80;;;7.27;;
249;SDS011;109;19.806;-70.704;2023-11-22T13:09:53;31.23;;;6.23;;
249;SDS011;109;19.806;-70.704;2023-11-22T13:12:23;33.97;;;6.37;;
249;SDS011;109;19.806;-70.704;2023-11-22T13:14:50;32.83;;;7.53;;
249;SDS011;109;19.806;-70.704;2023-11-22T13:17:17;29.93;;;5.73;;
249;SDS011;109;19.806;-70.704;2023-11-22T13:19:44;27.80;;;5.90;;
249;SDS011;109;19.806;-70.704;2023-11-22T13:22:15;27.90;;;6.80;;
249;SDS011;109;19.806;-70.704;2023-11-22T13:24:45;25.80;;;6.50;;
249;SDS011;109;19.806;-70.704;2023-11-22T13:27:12;31.90;;;6.80;;
249;SDS011;109;19.806;-70.704;2023-11-22T13:29:44;46.33;;;6.80;;
249;SDS011;109;19.806;-70.704;2023-11-22T13:32:11;29.47;;;6.50;;
249;SDS011;109;19.806;-70.704;2023-11-22T13:34:39;30.27;;;6.10;;
249;SDS011;109;19.806;-70.704;2023-11-22T13:37:06;32.13;;;6.50;;
249;SDS011;109;19.806;-70.704;2023-11-22T13:39:33;27.17;;;5.30;;
249;SDS011;109;19.806;-70.704;2023-11-22T13:42:00;25.63;;;6.20;;
249;SDS011;109;19.806;-70.704;2023-11-22T13:44:33;25.80;;;4.97;;
249;SDS011;109;19.806;-70.704;2023-11-22T13:47:00;23.00;;;5.57;;
249;SDS011;109;19.806;-70.704;2023-11-22T13:49:30;27.83;;;5.73;;
249;SDS011;109;19.806;-70.704;2023-11-22T13:51:57;23.53;;;5.00;;
249;SDS011;109;19.806;-70.704;2023-11-22T13:54:24;34.07;;;6.10;;
249;SDS011;109;19.806;-70.704;2023-11-22T13:56:51;24.30;;;5.47;;
249;SDS011;109;19.806;-70.704;2023-11-22T13:59:19;28.37;;;6.20;;
249;SDS011;109;19.806;-70.704;2023-11-22T14:01:49;25.20;;;6.50;;
249;SDS011;109;19.806;-70.704;2023-11-22T14:04:19;37.00;;;5.53;;
249;SDS011;109;19.806;-70.704;2023-11-22T14:06:49;34.37;;;5.57;;
249;SDS011;109;19.806;-70.704;2023-11-22T14:09:19;31.43;;;5.60;;
249;SDS011;109;19.806;-70.704;2023-11-22T14:11:47;39.60;;;6.67;;
249;SDS011;109;19.806;-70.704;2023-11-22T14:14:15;29.13;;;5.70;;
249;SDS011;109;19.806;-70.704;2023-11-22T14:16:44;28.87;;;6.00;;
249;SDS011;109;19.806;-70.704;2023-11-22T14:19:14;35.17;;;6.27;;
249;SDS011;109;19.806;-70.704;2023-11-22T14:21:41;32.80;;;6.10;;
249;SDS011;109;19.806;-70.704;2023-11-22T14:24:11;30.80;;;7.70;;
249;SDS011;109;19.806;-70.704;2023-11-22T14:26:42;25.77;;;6.20;;
249;SDS011;109;19.806;-70.704;2023-11-22T14:29:18;41.33;;;7.60;;
249;SDS011;109;19.806;-70.704;2023-11-22T14:31:45;44.77;;;10.87;;
249;SDS011;109;19.806;-70.704;2023-11-22T14:34:12;22.97;;;6.27;;
249;SDS011;109;19.806;-70.704;2023-11-22T14:36:39;29.00;;;5.53;;
249;SDS011;109;19.806;-70.704;2023-11-22T14:39:06;28.83;;;6.80;;
249;SDS011;109;19.806;-70.704;2023-11-22T14:41:33;23.80;;;5.97;;
249;SDS011;109;19.806;-70.704;2023-11-22T14:44:00;32.43;;;6.90;;
249;SDS011;109;19.806;-70.704;2023-11-22T14:46:27;32.33;;;5.63;;
249;SDS011;109;19.806;-70.704;2023-11-22T14:48:53;35.13;;;7.27;;
249;SDS011;109;19.806;-70.704;2023-11-22T14:51:20;40.00;;;6.67;;
249;SDS011;109;19.806;-70.704;2023-11-22T14:53:46;46.57;;;8.43;;
249;SDS011;109;19.806;-70.704;2023-11-22T14:56:13;46.37;;;8.30;;
249;SDS011;109;19.806;-70.704;2023-11-22T14:58:39;74.87;;;11.13;;
249;SDS011;109;19.806;-70.704;2023-11-22T15:01:06;45.23;;;8.10;;
249;SDS011;109;19.806;-70.704;2023-11-22T15:03:34;58.33;;;10.87;;
249;SDS011;109;19.806;-70.704;2023-11-22T15:06:01;62.50;;;10.00;;
249;SDS011;109;19.806;-70.704;2023-11-22T15:08:28;69.30;;;12.40;;
249;SDS011;109;19.806;-70.704;2023-11-22T15:10:55;70.30;;;10.90;;
249;SDS011;109;19.806;-70.704;2023-11-22T15:13:21;50.53;;;7.97;;
249;SDS011;109;19.806;-70.704;2023-11-22T15:15:48;35.00;;;6.70;;
249;SDS011;109;19.806;-70.704;2023-11-22T15:18:14;24.00;;;5.90;;
249;SDS011;109;19.806;-70.704;2023-11-22T15:20:41;32.20;;;7.30;;
249;SDS011;109;19.806;-70.704;2023-11-22T15:23:08;36.37;;;8.23;;
249;SDS011;109;19.806;-70.704;2023-11-22T15:25:34;35.20;;;6.90;;
249;SDS011;109;19.806;-70.704;2023-11-22T15:28:01;43.70;;;6.80;;